sensor_id;sensor_type;location;lat;lon;timestamp;temperature;humidity
2995;DHT22;35277;49.890;8.222;2023-07-31T00:01:58;26.00;66.40
2995;DHT22;35277;49.890;8.222;2023-07-31T00:04:26;26.00;66.50
2995;DHT22;35277;49.890;8.222;2023-07-31T00:06:55;26.00;66.50
2995;DHT22;35277;49.890;8.222;2023-07-31T00:09:23;26.00;66.50
2995;DHT22;35277;49.890;8.222;2023-07-31T00:11:50;26.00;66.50
2995;DHT22;35277;49.890;8.222;2023-07-31T00:14:18;26.00;66.50
2995;DHT22;35277;49.890;8.222;2023-07-31T00:16:46;26.00;66.60
2995;DHT22;35277;49.890;8.222;2023-07-31T00:19:17;26.00;66.60
2995;DHT22;35277;49.890;8.222;2023-07-31T00:21:45;26.00;66.60
2995;DHT22;35277;49.890;8.222;2023-07-31T00:24:14;26.00;66.60
2995;DHT22;35277;49.890;8.222;2023-07-31T00:26:42;26.00;66.60
2995;DHT22;35277;49.890;8.222;2023-07-31T00:29:10;26.00;66.60
2995;DHT22;35277;49.890;8.222;2023-07-31T00:31:38;26.00;66.60
2995;DHT22;35277;49.890;8.222;2023-07-31T00:34:06;26.00;66.60
2995;DHT22;35277;49.890;8.222;2023-07-31T00:36:34;26.00;67.50
2995;DHT22;35277;49.890;8.222;2023-07-31T00:39:03;26.00;66.70
2995;DHT22;35277;49.890;8.222;2023-07-31T00:41:33;26.00;67.50
2995;DHT22;35277;49.890;8.222;2023-07-31T00:44:01;26.00;66.70
2995;DHT22;35277;49.890;8.222;2023-07-31T00:46:28;26.00;66.80
2995;DHT22;35277;49.890;8.222;2023-07-31T00:48:56;26.00;66.80
2995;DHT22;35277;49.890;8.222;2023-07-31T00:51:24;26.00;66.80
2995;DHT22;35277;49.890;8.222;2023-07-31T00:53:53;26.00;67.60
2995;DHT22;35277;49.890;8.222;2023-07-31T00:56:23;26.00;66.80
2995;DHT22;35277;49.890;8.222;2023-07-31T00:58:52;26.00;66.90
2995;DHT22;35277;49.890;8.222;2023-07-31T01:01:20;26.00;66.80
2995;DHT22;35277;49.890;8.222;2023-07-31T01:03:49;26.00;66.80
2995;DHT22;35277;49.890;8.222;2023-07-31T01:06:26;26.00;66.80
2995;DHT22;35277;49.890;8.222;2023-07-31T01:09:03;26.00;66.90
2995;DHT22;35277;49.890;8.222;2023-07-31T01:11:34;26.00;66.90
2995;DHT22;35277;49.890;8.222;2023-07-31T01:14:04;26.00;67.00
2995;DHT22;35277;49.890;8.222;2023-07-31T01:16:32;26.00;66.90
2995;DHT22;35277;49.890;8.222;2023-07-31T01:19:00;26.00;67.00
2995;DHT22;35277;49.890;8.222;2023-07-31T01:21:52;26.00;66.90
2995;DHT22;35277;49.890;8.222;2023-07-31T01:24:30;26.00;67.00
2995;DHT22;35277;49.890;8.222;2023-07-31T01:27:09;26.00;67.00
2995;DHT22;35277;49.890;8.222;2023-07-31T01:29:40;26.00;67.00
2995;DHT22;35277;49.890;8.222;2023-07-31T01:32:11;26.00;67.00
2995;DHT22;35277;49.890;8.222;2023-07-31T01:34:39;26.00;67.00
2995;DHT22;35277;49.890;8.222;2023-07-31T01:37:08;26.00;67.00
2995;DHT22;35277;49.890;8.222;2023-07-31T01:39:36;26.00;67.00
2995;DHT22;35277;49.890;8.222;2023-07-31T01:42:06;26.00;67.00
2995;DHT22;35277;49.890;8.222;2023-07-31T01:44:34;26.00;67.10
2995;DHT22;35277;49.890;8.222;2023-07-31T01:47:04;26.00;67.00
2995;DHT22;35277;49.890;8.222;2023-07-31T01:49:32;26.00;67.00
2995;DHT22;35277;49.890;8.222;2023-07-31T01:52:00;26.00;67.10
2995;DHT22;35277;49.890;8.222;2023-07-31T01:54:28;26.00;67.10
2995;DHT22;35277;49.890;8.222;2023-07-31T01:56:56;26.00;67.10
2995;DHT22;35277;49.890;8.222;2023-07-31T01:59:25;26.00;67.10
2995;DHT22;35277;49.890;8.222;2023-07-31T02:01:52;26.00;67.10
2995;DHT22;35277;49.890;8.222;2023-07-31T02:04:20;26.00;67.10
2995;DHT22;35277;49.890;8.222;2023-07-31T02:06:48;26.00;67.10
2995;DHT22;35277;49.890;8.222;2023-07-31T02:09:16;26.00;67.10
2995;DHT22;35277;49.890;8.222;2023-07-31T02:11:44;26.00;67.10
2995;DHT22;35277;49.890;8.222;2023-07-31T02:14:12;26.00;67.10
2995;DHT22;35277;49.890;8.222;2023-07-31T02:16:41;26.00;67.10
2995;DHT22;35277;49.890;8.222;2023-07-31T02:19:10;26.00;67.10
2995;DHT22;35277;49.890;8.222;2023-07-31T02:21:37;26.00;67.20
2995;DHT22;35277;49.890;8.222;2023-07-31T02:24:06;26.00;67.20
2995;DHT22;35277;49.890;8.222;2023-07-31T02:26:33;26.00;67.20
2995;DHT22;35277;49.890;8.222;2023-07-31T02:29:02;26.00;67.20
2995;DHT22;35277;49.890;8.222;2023-07-31T02:31:30;26.00;67.20
2995;DHT22;35277;49.890;8.222;2023-07-31T02:33:59;26.00;67.20
2995;DHT22;35277;49.890;8.222;2023-07-31T02:36:27;26.00;67.20
2995;DHT22;35277;49.890;8.222;2023-07-31T02:38:55;26.00;67.20
2995;DHT22;35277;49.890;8.222;2023-07-31T02:41:23;26.00;67.30
2995;DHT22;35277;49.890;8.222;2023-07-31T02:43:50;26.00;67.30
2995;DHT22;35277;49.890;8.222;2023-07-31T02:46:19;26.00;67.30
2995;DHT22;35277;49.890;8.222;2023-07-31T02:48:50;26.00;67.30
2995;DHT22;35277;49.890;8.222;2023-07-31T02:51:20;26.00;67.30
2995;DHT22;35277;49.890;8.222;2023-07-31T02:53:48;26.00;67.30
2995;DHT22;35277;49.890;8.222;2023-07-31T02:56:16;26.00;67.30
2995;DHT22;35277;49.890;8.222;2023-07-31T02:58:44;26.00;67.30
2995;DHT22;35277;49.890;8.222;2023-07-31T03:01:12;26.00;67.40
2995;DHT22;35277;49.890;8.222;2023-07-31T03:03:41;26.00;67.40
2995;DHT22;35277;49.890;8.222;2023-07-31T03:06:11;26.00;67.40
2995;DHT22;35277;49.890;8.222;2023-07-31T03:08:40;26.00;67.40
2995;DHT22;35277;49.890;8.222;2023-07-31T03:11:08;26.00;67.40
2995;DHT22;35277;49.890;8.222;2023-07-31T03:13:36;26.00;67.40
2995;DHT22;35277;49.890;8.222;2023-07-31T03:16:04;26.00;67.50
2995;DHT22;35277;49.890;8.222;2023-07-31T03:18:31;26.00;67.50
2995;DHT22;35277;49.890;8.222;2023-07-31T03:21:00;26.00;67.50
2995;DHT22;35277;49.890;8.222;2023-07-31T03:23:28;26.00;67.40
2995;DHT22;35277;49.890;8.222;2023-07-31T03:25:58;26.00;67.50
2995;DHT22;35277;49.890;8.222;2023-07-31T03:28:29;26.00;67.50
2995;DHT22;35277;49.890;8.222;2023-07-31T03:30:58;26.00;67.50
2995;DHT22;35277;49.890;8.222;2023-07-31T03:33:26;26.00;67.50
2995;DHT22;35277;49.890;8.222;2023-07-31T03:35:53;26.00;67.50
2995;DHT22;35277;49.890;8.222;2023-07-31T03:38:21;26.00;67.50
2995;DHT22;35277;49.890;8.222;2023-07-31T03:40:49;26.00;67.50
2995;DHT22;35277;49.890;8.222;2023-07-31T03:43:18;26.00;67.50
2995;DHT22;35277;49.890;8.222;2023-07-31T03:45:46;26.00;67.50
2995;DHT22;35277;49.890;8.222;2023-07-31T03:48:14;26.00;67.50
2995;DHT22;35277;49.890;8.222;2023-07-31T03:50:42;26.00;67.50
2995;DHT22;35277;49.890;8.222;2023-07-31T03:53:10;26.00;67.50
2995;DHT22;35277;49.890;8.222;2023-07-31T03:55:38;26.00;67.50
2995;DHT22;35277;49.890;8.222;2023-07-31T03:58:06;26.00;67.50
2995;DHT22;35277;49.890;8.222;2023-07-31T04:00:35;26.00;67.60
2995;DHT22;35277;49.890;8.222;2023-07-31T04:03:03;26.00;67.50
2995;DHT22;35277;49.890;8.222;2023-07-31T04:05:32;26.00;67.60
2995;DHT22;35277;49.890;8.222;2023-07-31T04:08:00;26.00;67.60
2995;DHT22;35277;49.890;8.222;2023-07-31T04:10:28;26.00;67.60
2995;DHT22;35277;49.890;8.222;2023-07-31T04:12:56;26.00;67.60
2995;DHT22;35277;49.890;8.222;2023-07-31T04:15:24;26.00;68.60
2995;DHT22;35277;49.890;8.222;2023-07-31T04:17:53;26.00;68.00
2995;DHT22;35277;49.890;8.222;2023-07-31T04:20:21;26.00;68.50
2995;DHT22;35277;49.890;8.222;2023-07-31T04:22:49;26.00;68.80
2995;DHT22;35277;49.890;8.222;2023-07-31T04:25:17;26.00;69.00
2995;DHT22;35277;49.890;8.222;2023-07-31T04:27:45;26.00;69.10
2995;DHT22;35277;49.890;8.222;2023-07-31T04:30:13;26.00;69.20
2995;DHT22;35277;49.890;8.222;2023-07-31T04:32:40;26.00;69.30
2995;DHT22;35277;49.890;8.222;2023-07-31T04:35:11;26.00;69.40
2995;DHT22;35277;49.890;8.222;2023-07-31T04:37:38;26.00;69.50
2995;DHT22;35277;49.890;8.222;2023-07-31T04:40:07;26.00;69.50
2995;DHT22;35277;49.890;8.222;2023-07-31T04:42:35;26.00;69.60
2995;DHT22;35277;49.890;8.222;2023-07-31T04:45:03;26.00;69.70
2995;DHT22;35277;49.890;8.222;2023-07-31T04:47:32;26.00;69.70
2995;DHT22;35277;49.890;8.222;2023-07-31T04:50:00;26.10;69.80
2995;DHT22;35277;49.890;8.222;2023-07-31T04:52:29;26.00;69.80
2995;DHT22;35277;49.890;8.222;2023-07-31T04:54:57;26.10;69.90
2995;DHT22;35277;49.890;8.222;2023-07-31T04:57:24;26.00;69.80
2995;DHT22;35277;49.890;8.222;2023-07-31T04:59:52;26.10;70.00
2995;DHT22;35277;49.890;8.222;2023-07-31T05:02:20;26.10;70.00
2995;DHT22;35277;49.890;8.222;2023-07-31T05:04:48;26.10;69.90
2995;DHT22;35277;49.890;8.222;2023-07-31T05:07:16;26.10;69.90
2995;DHT22;35277;49.890;8.222;2023-07-31T05:09:45;26.10;69.90
2995;DHT22;35277;49.890;8.222;2023-07-31T05:12:13;26.10;69.90
2995;DHT22;35277;49.890;8.222;2023-07-31T05:14:41;26.10;69.90
2995;DHT22;35277;49.890;8.222;2023-07-31T05:17:09;26.10;69.80
2995;DHT22;35277;49.890;8.222;2023-07-31T05:19:37;26.10;69.90
2995;DHT22;35277;49.890;8.222;2023-07-31T05:22:05;26.10;69.90
2995;DHT22;35277;49.890;8.222;2023-07-31T05:24:33;26.10;69.80
2995;DHT22;35277;49.890;8.222;2023-07-31T05:27:02;26.10;69.90
2995;DHT22;35277;49.890;8.222;2023-07-31T05:29:30;26.10;69.80
2995;DHT22;35277;49.890;8.222;2023-07-31T05:31:58;26.10;69.80
2995;DHT22;35277;49.890;8.222;2023-07-31T05:34:26;26.10;69.70
2995;DHT22;35277;49.890;8.222;2023-07-31T05:36:54;26.10;69.70
2995;DHT22;35277;49.890;8.222;2023-07-31T05:39:21;26.10;69.60
2995;DHT22;35277;49.890;8.222;2023-07-31T05:41:49;26.10;69.60
2995;DHT22;35277;49.890;8.222;2023-07-31T05:44:18;26.10;69.60
2995;DHT22;35277;49.890;8.222;2023-07-31T05:46:46;26.00;69.50
2995;DHT22;35277;49.890;8.222;2023-07-31T05:49:14;26.10;69.60
2995;DHT22;35277;49.890;8.222;2023-07-31T05:51:42;26.10;69.50
2995;DHT22;35277;49.890;8.222;2023-07-31T05:54:09;26.10;69.50
2995;DHT22;35277;49.890;8.222;2023-07-31T05:56:37;26.10;69.50
2995;DHT22;35277;49.890;8.222;2023-07-31T05:59:05;26.10;69.50
2995;DHT22;35277;49.890;8.222;2023-07-31T06:01:35;26.10;69.40
2995;DHT22;35277;49.890;8.222;2023-07-31T06:04:03;26.10;69.40
2995;DHT22;35277;49.890;8.222;2023-07-31T06:06:31;26.10;69.40
2995;DHT22;35277;49.890;8.222;2023-07-31T06:08:59;26.10;69.40
2995;DHT22;35277;49.890;8.222;2023-07-31T06:11:26;26.10;69.40
2995;DHT22;35277;49.890;8.222;2023-07-31T06:13:54;26.10;69.40
2995;DHT22;35277;49.890;8.222;2023-07-31T06:16:23;26.10;69.30
2995;DHT22;35277;49.890;8.222;2023-07-31T06:18:52;26.00;69.20
2995;DHT22;35277;49.890;8.222;2023-07-31T06:21:20;26.10;69.30
2995;DHT22;35277;49.890;8.222;2023-07-31T06:23:48;26.10;69.30
2995;DHT22;35277;49.890;8.222;2023-07-31T06:26:15;26.10;69.30
2995;DHT22;35277;49.890;8.222;2023-07-31T06:28:43;26.10;69.30
2995;DHT22;35277;49.890;8.222;2023-07-31T06:31:11;26.10;69.30
2995;DHT22;35277;49.890;8.222;2023-07-31T06:33:39;26.10;69.40
2995;DHT22;35277;49.890;8.222;2023-07-31T06:36:08;26.10;69.30
2995;DHT22;35277;49.890;8.222;2023-07-31T06:38:36;26.10;69.30
2995;DHT22;35277;49.890;8.222;2023-07-31T06:41:04;26.10;69.30
2995;DHT22;35277;49.890;8.222;2023-07-31T06:43:32;26.10;69.30
2995;DHT22;35277;49.890;8.222;2023-07-31T06:46:04;26.10;69.30
2995;DHT22;35277;49.890;8.222;2023-07-31T06:48:33;26.10;69.30
2995;DHT22;35277;49.890;8.222;2023-07-31T06:51:01;26.10;69.30
2995;DHT22;35277;49.890;8.222;2023-07-31T06:53:30;26.10;69.30
2995;DHT22;35277;49.890;8.222;2023-07-31T06:55:58;26.10;70.10
2995;DHT22;35277;49.890;8.222;2023-07-31T06:58:26;26.10;69.30
2995;DHT22;35277;49.890;8.222;2023-07-31T07:00:53;26.10;69.30
2995;DHT22;35277;49.890;8.222;2023-07-31T07:03:21;26.10;69.40
2995;DHT22;35277;49.890;8.222;2023-07-31T07:05:49;26.10;69.30
2995;DHT22;35277;49.890;8.222;2023-07-31T07:08:17;26.10;69.40
2995;DHT22;35277;49.890;8.222;2023-07-31T07:10:46;26.20;69.50
2995;DHT22;35277;49.890;8.222;2023-07-31T07:13:14;26.20;69.50
2995;DHT22;35277;49.890;8.222;2023-07-31T07:15:42;26.20;69.60
2995;DHT22;35277;49.890;8.222;2023-07-31T07:18:10;26.20;69.60
2995;DHT22;35277;49.890;8.222;2023-07-31T07:20:38;26.20;69.50
2995;DHT22;35277;49.890;8.222;2023-07-31T07:23:05;26.20;69.60
2995;DHT22;35277;49.890;8.222;2023-07-31T07:25:37;26.20;69.60
2995;DHT22;35277;49.890;8.222;2023-07-31T07:28:06;26.20;69.60
2995;DHT22;35277;49.890;8.222;2023-07-31T07:30:34;26.20;69.70
2995;DHT22;35277;49.890;8.222;2023-07-31T07:33:02;26.20;69.70
2995;DHT22;35277;49.890;8.222;2023-07-31T07:35:30;26.20;69.80
2995;DHT22;35277;49.890;8.222;2023-07-31T07:37:58;26.20;69.80
2995;DHT22;35277;49.890;8.222;2023-07-31T07:40:25;26.20;69.80
2995;DHT22;35277;49.890;8.222;2023-07-31T07:42:53;26.20;69.80
2995;DHT22;35277;49.890;8.222;2023-07-31T07:45:23;26.20;69.80
2995;DHT22;35277;49.890;8.222;2023-07-31T07:47:50;26.20;69.90
2995;DHT22;35277;49.890;8.222;2023-07-31T07:50:18;26.20;69.90
2995;DHT22;35277;49.890;8.222;2023-07-31T07:52:47;26.20;69.90
2995;DHT22;35277;49.890;8.222;2023-07-31T07:55:14;26.20;70.00
2995;DHT22;35277;49.890;8.222;2023-07-31T07:57:42;26.20;70.00
2995;DHT22;35277;49.890;8.222;2023-07-31T08:00:13;26.20;70.00
2995;DHT22;35277;49.890;8.222;2023-07-31T08:02:43;26.20;70.00
2995;DHT22;35277;49.890;8.222;2023-07-31T08:05:11;26.20;70.00
2995;DHT22;35277;49.890;8.222;2023-07-31T08:07:39;26.20;70.10
2995;DHT22;35277;49.890;8.222;2023-07-31T08:10:07;26.20;70.00
2995;DHT22;35277;49.890;8.222;2023-07-31T08:12:35;26.20;70.00
2995;DHT22;35277;49.890;8.222;2023-07-31T08:15:04;26.20;70.00
2995;DHT22;35277;49.890;8.222;2023-07-31T08:17:32;26.20;70.00
2995;DHT22;35277;49.890;8.222;2023-07-31T08:20:01;26.20;70.00
2995;DHT22;35277;49.890;8.222;2023-07-31T08:22:29;26.20;70.00
2995;DHT22;35277;49.890;8.222;2023-07-31T08:24:56;26.20;70.00
2995;DHT22;35277;49.890;8.222;2023-07-31T08:27:24;26.20;70.00
2995;DHT22;35277;49.890;8.222;2023-07-31T08:29:52;26.20;70.10
2995;DHT22;35277;49.890;8.222;2023-07-31T08:32:20;26.30;70.10
2995;DHT22;35277;49.890;8.222;2023-07-31T08:34:48;26.30;70.20
2995;DHT22;35277;49.890;8.222;2023-07-31T08:37:17;26.30;70.20
2995;DHT22;35277;49.890;8.222;2023-07-31T08:39:45;26.20;70.10
2995;DHT22;35277;49.890;8.222;2023-07-31T08:42:12;26.30;70.20
2995;DHT22;35277;49.890;8.222;2023-07-31T08:44:41;26.30;70.20
2995;DHT22;35277;49.890;8.222;2023-07-31T08:47:09;26.30;70.20
2995;DHT22;35277;49.890;8.222;2023-07-31T08:49:38;26.20;70.10
2995;DHT22;35277;49.890;8.222;2023-07-31T08:52:07;26.30;70.20
2995;DHT22;35277;49.890;8.222;2023-07-31T08:54:36;26.30;70.20
2995;DHT22;35277;49.890;8.222;2023-07-31T08:57:05;26.30;70.20
2995;DHT22;35277;49.890;8.222;2023-07-31T08:59:35;26.30;70.20
2995;DHT22;35277;49.890;8.222;2023-07-31T09:02:05;26.30;70.20
2995;DHT22;35277;49.890;8.222;2023-07-31T09:04:34;26.30;70.20
2995;DHT22;35277;49.890;8.222;2023-07-31T09:07:03;26.30;70.30
2995;DHT22;35277;49.890;8.222;2023-07-31T09:09:31;26.30;70.30
2995;DHT22;35277;49.890;8.222;2023-07-31T09:12:00;26.20;70.30
2995;DHT22;35277;49.890;8.222;2023-07-31T09:14:29;26.30;70.30
2995;DHT22;35277;49.890;8.222;2023-07-31T09:16:58;26.30;70.30
2995;DHT22;35277;49.890;8.222;2023-07-31T09:19:28;26.30;70.30
2995;DHT22;35277;49.890;8.222;2023-07-31T09:21:56;26.30;70.20
2995;DHT22;35277;49.890;8.222;2023-07-31T09:24:25;26.30;70.00
2995;DHT22;35277;49.890;8.222;2023-07-31T09:26:54;26.30;69.80
2995;DHT22;35277;49.890;8.222;2023-07-31T09:29:23;26.20;69.50
2995;DHT22;35277;49.890;8.222;2023-07-31T09:31:53;26.20;69.40
2995;DHT22;35277;49.890;8.222;2023-07-31T09:34:29;26.20;69.30
2995;DHT22;35277;49.890;8.222;2023-07-31T09:37:00;26.20;69.20
2995;DHT22;35277;49.890;8.222;2023-07-31T09:39:29;26.20;69.10
2995;DHT22;35277;49.890;8.222;2023-07-31T09:41:57;26.10;68.90
2995;DHT22;35277;49.890;8.222;2023-07-31T09:44:39;26.10;68.90
2995;DHT22;35277;49.890;8.222;2023-07-31T09:47:21;26.10;68.70
2995;DHT22;35277;49.890;8.222;2023-07-31T09:49:50;26.10;68.60
2995;DHT22;35277;49.890;8.222;2023-07-31T09:52:18;26.10;68.60
2995;DHT22;35277;49.890;8.222;2023-07-31T09:54:46;26.10;68.60
2995;DHT22;35277;49.890;8.222;2023-07-31T09:57:15;26.10;68.50
2995;DHT22;35277;49.890;8.222;2023-07-31T09:59:47;26.10;68.50
2995;DHT22;35277;49.890;8.222;2023-07-31T10:02:21;26.10;68.50
2995;DHT22;35277;49.890;8.222;2023-07-31T10:04:50;26.10;68.50
2995;DHT22;35277;49.890;8.222;2023-07-31T10:07:18;26.10;68.50
2995;DHT22;35277;49.890;8.222;2023-07-31T10:09:48;26.10;68.40
2995;DHT22;35277;49.890;8.222;2023-07-31T10:12:18;26.10;68.30
2995;DHT22;35277;49.890;8.222;2023-07-31T10:14:48;26.10;68.30
2995;DHT22;35277;49.890;8.222;2023-07-31T10:17:17;26.10;68.30
2995;DHT22;35277;49.890;8.222;2023-07-31T10:19:46;26.10;68.10
2995;DHT22;35277;49.890;8.222;2023-07-31T10:22:15;26.10;68.10
2995;DHT22;35277;49.890;8.222;2023-07-31T10:24:45;26.10;67.90
2995;DHT22;35277;49.890;8.222;2023-07-31T10:27:14;26.00;67.80
2995;DHT22;35277;49.890;8.222;2023-07-31T10:29:43;26.00;67.80
2995;DHT22;35277;49.890;8.222;2023-07-31T10:32:17;26.00;67.70
2995;DHT22;35277;49.890;8.222;2023-07-31T10:34:46;26.00;67.80
2995;DHT22;35277;49.890;8.222;2023-07-31T10:37:21;26.00;67.80
2995;DHT22;35277;49.890;8.222;2023-07-31T10:39:56;26.00;67.80
2995;DHT22;35277;49.890;8.222;2023-07-31T10:42:29;26.00;67.80
2995;DHT22;35277;49.890;8.222;2023-07-31T10:44:58;26.00;67.80
2995;DHT22;35277;49.890;8.222;2023-07-31T10:47:28;26.00;67.70
2995;DHT22;35277;49.890;8.222;2023-07-31T10:50:12;26.00;67.70
2995;DHT22;35277;49.890;8.222;2023-07-31T10:52:40;26.00;67.70
2995;DHT22;35277;49.890;8.222;2023-07-31T10:55:15;26.00;67.70
2995;DHT22;35277;49.890;8.222;2023-07-31T10:57:44;26.00;67.80
2995;DHT22;35277;49.890;8.222;2023-07-31T11:00:25;26.00;67.80
2995;DHT22;35277;49.890;8.222;2023-07-31T11:02:59;26.00;67.80
2995;DHT22;35277;49.890;8.222;2023-07-31T11:05:44;26.00;67.80
2995;DHT22;35277;49.890;8.222;2023-07-31T11:08:13;26.00;67.90
2995;DHT22;35277;49.890;8.222;2023-07-31T11:10:42;26.00;67.90
2995;DHT22;35277;49.890;8.222;2023-07-31T11:13:10;26.00;67.90
2995;DHT22;35277;49.890;8.222;2023-07-31T11:15:39;26.00;67.90
2995;DHT22;35277;49.890;8.222;2023-07-31T11:18:08;26.00;67.90
2995;DHT22;35277;49.890;8.222;2023-07-31T11:20:38;26.00;68.00
2995;DHT22;35277;49.890;8.222;2023-07-31T11:23:08;26.00;68.10
2995;DHT22;35277;49.890;8.222;2023-07-31T11:25:37;26.10;68.30
2995;DHT22;35277;49.890;8.222;2023-07-31T11:28:08;26.10;68.80
2995;DHT22;35277;49.890;8.222;2023-07-31T11:30:36;26.10;69.10
2995;DHT22;35277;49.890;8.222;2023-07-31T11:33:05;26.20;69.40
2995;DHT22;35277;49.890;8.222;2023-07-31T11:35:36;26.20;69.90
2995;DHT22;35277;49.890;8.222;2023-07-31T11:38:04;26.20;70.20
2995;DHT22;35277;49.890;8.222;2023-07-31T11:40:32;26.30;70.30
2995;DHT22;35277;49.890;8.222;2023-07-31T11:43:08;26.40;70.40
2995;DHT22;35277;49.890;8.222;2023-07-31T11:45:38;26.50;70.40
2995;DHT22;35277;49.890;8.222;2023-07-31T11:48:07;26.50;70.60
2995;DHT22;35277;49.890;8.222;2023-07-31T11:50:36;26.50;70.40
2995;DHT22;35277;49.890;8.222;2023-07-31T11:53:07;26.60;70.30
2995;DHT22;35277;49.890;8.222;2023-07-31T11:55:36;26.70;70.20
2995;DHT22;35277;49.890;8.222;2023-07-31T11:58:04;26.70;70.10
2995;DHT22;35277;49.890;8.222;2023-07-31T12:00:33;26.70;70.10
2995;DHT22;35277;49.890;8.222;2023-07-31T12:03:00;26.80;70.90
2995;DHT22;35277;49.890;8.222;2023-07-31T12:05:30;26.80;70.10
2995;DHT22;35277;49.890;8.222;2023-07-31T12:07:59;26.80;70.10
2995;DHT22;35277;49.890;8.222;2023-07-31T12:10:28;26.80;70.20
2995;DHT22;35277;49.890;8.222;2023-07-31T12:13:01;26.70;70.10
2995;DHT22;35277;49.890;8.222;2023-07-31T12:15:42;26.70;70.00
2995;DHT22;35277;49.890;8.222;2023-07-31T12:18:11;26.70;70.00
2995;DHT22;35277;49.890;8.222;2023-07-31T12:20:41;26.70;69.70
2995;DHT22;35277;49.890;8.222;2023-07-31T12:23:15;26.70;69.50
2995;DHT22;35277;49.890;8.222;2023-07-31T12:25:43;26.70;69.20
2995;DHT22;35277;49.890;8.222;2023-07-31T12:28:11;26.70;69.10
2995;DHT22;35277;49.890;8.222;2023-07-31T12:30:41;26.60;68.80
2995;DHT22;35277;49.890;8.222;2023-07-31T12:33:14;26.60;68.50
2995;DHT22;35277;49.890;8.222;2023-07-31T12:35:45;26.50;68.20
2995;DHT22;35277;49.890;8.222;2023-07-31T12:38:14;26.50;68.10
2995;DHT22;35277;49.890;8.222;2023-07-31T12:40:42;26.50;68.10
2995;DHT22;35277;49.890;8.222;2023-07-31T12:43:10;26.50;68.00
2995;DHT22;35277;49.890;8.222;2023-07-31T12:45:38;26.50;67.90
2995;DHT22;35277;49.890;8.222;2023-07-31T12:48:05;26.50;67.80
2995;DHT22;35277;49.890;8.222;2023-07-31T12:50:33;26.50;67.80
2995;DHT22;35277;49.890;8.222;2023-07-31T12:53:03;26.50;67.80
2995;DHT22;35277;49.890;8.222;2023-07-31T12:55:33;26.40;67.70
2995;DHT22;35277;49.890;8.222;2023-07-31T12:58:01;26.50;67.80
2995;DHT22;35277;49.890;8.222;2023-07-31T13:00:29;26.40;68.60
2995;DHT22;35277;49.890;8.222;2023-07-31T13:02:57;26.50;67.90
2995;DHT22;35277;49.890;8.222;2023-07-31T13:05:25;26.50;67.90
2995;DHT22;35277;49.890;8.222;2023-07-31T13:07:52;26.50;67.80
2995;DHT22;35277;49.890;8.222;2023-07-31T13:10:21;26.50;67.80
2995;DHT22;35277;49.890;8.222;2023-07-31T13:12:51;26.50;67.80
2995;DHT22;35277;49.890;8.222;2023-07-31T13:15:18;26.50;67.70
2995;DHT22;35277;49.890;8.222;2023-07-31T13:17:46;26.50;67.70
2995;DHT22;35277;49.890;8.222;2023-07-31T13:20:14;26.50;67.70
2995;DHT22;35277;49.890;8.222;2023-07-31T13:22:42;26.50;67.70
2995;DHT22;35277;49.890;8.222;2023-07-31T13:25:12;26.50;67.70
2995;DHT22;35277;49.890;8.222;2023-07-31T13:27:40;26.50;67.70
2995;DHT22;35277;49.890;8.222;2023-07-31T13:30:10;26.50;67.80
2995;DHT22;35277;49.890;8.222;2023-07-31T13:32:37;26.50;67.80
2995;DHT22;35277;49.890;8.222;2023-07-31T13:35:06;26.50;67.80
2995;DHT22;35277;49.890;8.222;2023-07-31T13:37:34;26.50;67.90
2995;DHT22;35277;49.890;8.222;2023-07-31T13:40:03;26.40;67.80
2995;DHT22;35277;49.890;8.222;2023-07-31T13:42:32;26.40;67.80
2995;DHT22;35277;49.890;8.222;2023-07-31T13:45:00;26.40;67.90
2995;DHT22;35277;49.890;8.222;2023-07-31T13:47:33;26.40;67.80
2995;DHT22;35277;49.890;8.222;2023-07-31T13:50:01;26.40;67.90
2995;DHT22;35277;49.890;8.222;2023-07-31T13:52:29;26.30;67.90
2995;DHT22;35277;49.890;8.222;2023-07-31T13:54:57;26.40;68.00
2995;DHT22;35277;49.890;8.222;2023-07-31T13:57:25;26.40;68.10
2995;DHT22;35277;49.890;8.222;2023-07-31T13:59:53;26.40;68.10
2995;DHT22;35277;49.890;8.222;2023-07-31T14:02:21;26.30;68.10
2995;DHT22;35277;49.890;8.222;2023-07-31T14:04:50;26.40;68.10
2995;DHT22;35277;49.890;8.222;2023-07-31T14:07:17;26.40;68.20
2995;DHT22;35277;49.890;8.222;2023-07-31T14:09:45;26.40;68.20
2995;DHT22;35277;49.890;8.222;2023-07-31T14:12:13;26.40;68.20
2995;DHT22;35277;49.890;8.222;2023-07-31T14:15:01;26.40;68.30
2995;DHT22;35277;49.890;8.222;2023-07-31T14:17:29;26.40;68.40
2995;DHT22;35277;49.890;8.222;2023-07-31T14:19:59;26.40;68.40
2995;DHT22;35277;49.890;8.222;2023-07-31T14:22:28;26.40;68.40
2995;DHT22;35277;49.890;8.222;2023-07-31T14:24:56;26.40;68.40
2995;DHT22;35277;49.890;8.222;2023-07-31T14:27:24;26.40;68.50
2995;DHT22;35277;49.890;8.222;2023-07-31T14:29:52;26.40;68.60
2995;DHT22;35277;49.890;8.222;2023-07-31T14:32:20;26.40;68.60
2995;DHT22;35277;49.890;8.222;2023-07-31T14:34:49;26.40;68.60
2995;DHT22;35277;49.890;8.222;2023-07-31T14:37:19;26.40;68.60
2995;DHT22;35277;49.890;8.222;2023-07-31T14:39:46;26.50;68.80
2995;DHT22;35277;49.890;8.222;2023-07-31T14:42:14;26.50;68.80
2995;DHT22;35277;49.890;8.222;2023-07-31T14:44:43;26.50;68.80
2995;DHT22;35277;49.890;8.222;2023-07-31T14:47:10;26.40;68.70
2995;DHT22;35277;49.890;8.222;2023-07-31T14:49:38;26.50;68.90
2995;DHT22;35277;49.890;8.222;2023-07-31T14:52:06;26.50;68.90
2995;DHT22;35277;49.890;8.222;2023-07-31T14:54:35;26.50;69.00
2995;DHT22;35277;49.890;8.222;2023-07-31T14:57:04;26.50;69.00
2995;DHT22;35277;49.890;8.222;2023-07-31T14:59:32;26.50;69.00
2995;DHT22;35277;49.890;8.222;2023-07-31T15:02:00;26.50;69.00
2995;DHT22;35277;49.890;8.222;2023-07-31T15:04:28;26.50;69.00
2995;DHT22;35277;49.890;8.222;2023-07-31T15:06:55;26.50;68.90
2995;DHT22;35277;49.890;8.222;2023-07-31T15:09:23;26.50;68.80
2995;DHT22;35277;49.890;8.222;2023-07-31T15:11:53;26.50;68.70
2995;DHT22;35277;49.890;8.222;2023-07-31T15:14:20;26.50;68.70
2995;DHT22;35277;49.890;8.222;2023-07-31T15:16:48;26.60;68.80
2995;DHT22;35277;49.890;8.222;2023-07-31T15:19:16;26.50;68.60
2995;DHT22;35277;49.890;8.222;2023-07-31T15:21:44;26.50;68.60
2995;DHT22;35277;49.890;8.222;2023-07-31T15:24:12;26.50;68.60
2995;DHT22;35277;49.890;8.222;2023-07-31T15:26:40;26.50;68.50
2995;DHT22;35277;49.890;8.222;2023-07-31T15:29:10;26.50;68.40
2995;DHT22;35277;49.890;8.222;2023-07-31T15:31:42;26.50;68.30
2995;DHT22;35277;49.890;8.222;2023-07-31T15:34:09;26.50;68.20
2995;DHT22;35277;49.890;8.222;2023-07-31T15:36:37;26.50;68.10
2995;DHT22;35277;49.890;8.222;2023-07-31T15:39:06;26.50;68.10
2995;DHT22;35277;49.890;8.222;2023-07-31T15:41:35;26.50;68.00
2995;DHT22;35277;49.890;8.222;2023-07-31T15:44:03;26.50;67.90
2995;DHT22;35277;49.890;8.222;2023-07-31T15:46:32;26.50;67.80
2995;DHT22;35277;49.890;8.222;2023-07-31T15:49:00;26.50;67.80
2995;DHT22;35277;49.890;8.222;2023-07-31T15:51:30;26.50;67.70
2995;DHT22;35277;49.890;8.222;2023-07-31T15:53:57;26.40;67.60
2995;DHT22;35277;49.890;8.222;2023-07-31T15:56:25;26.50;67.60